Zaliv Vostok — A8RM6 — position and weather

sailwx.info

Track history (hours):
 
Tides and Currents Weather Stations Pressure Air Temp Water Temp Dewpoint Dewpoint Depression Visibility Wind Speed Wind Dir Waves Ship Positions

Zaliv Vostok

Last reported at 2017-May-09 18:31 UTC. Time now 2017-May-27 08:14 UTC.
Position N 01°55' E 102°20'.
Warning: this ship's position is 17 days out of date.

Length 243 m; draft 14.5 m.

Type: Tanker. MMSI: 636014127.

Date/timePositionNaut miles runAvg speedWind from/ knotsBaromVisibWave heightAir tempDewpointWater temp
2017-May-09 18:31N 01°55' E 102°20'113.5
2017-May-09 18:28N 01°54' E 102°21'7912.1
2017-May-09 11:57N 01°13' E 103°28'810.4
2017-May-09 11:11N 01°12' E 103°36'0 2.8
2017-May-09 11:00N 01°12' E 103°37'2 3.3
2017-May-09 10:24N 01°12' E 103°39'2 4.9
2017-May-09 09:54N 01°11' E 103°41'3 8.1
2017-May-09 09:30N 01°09' E 103°43'4 7.7
2017-May-09 09:00N 01°10' E 103°47'510.0
2017-May-09 08:28N 01°12' E 103°52'4 9.1
2017-May-09 08:00N 01°14' E 103°56'4 8.4
2017-May-09 07:30N 01°15' E 103°60'  
Track history (hours):
 
Tides and Currents Weather Stations Pressure Air Temp Water Temp Dewpoint Dewpoint Depression Visibility Wind Speed Wind Dir Waves Ship Positions

Zaliv Vostok

Last reported at 2017-May-09 18:31 UTC. Time now 2017-May-27 08:14 UTC.
Position N 01°55' E 102°20'.
Warning: this ship's position is 17 days out of date.

Length 243 m; draft 14.5 m.

Type: Tanker. MMSI: 636014127.

Date/timePositionNaut miles runAvg speedWind from/ knotsBaromVisibWave heightAir tempDewpointWater temp
2017-May-09 18:31N 01°55' E 102°20'113.5
2017-May-09 18:28N 01°54' E 102°21'7912.1
2017-May-09 11:57N 01°13' E 103°28'810.4
2017-May-09 11:11N 01°12' E 103°36'0 2.8
2017-May-09 11:00N 01°12' E 103°37'2 3.3
2017-May-09 10:24N 01°12' E 103°39'2 4.9
2017-May-09 09:54N 01°11' E 103°41'3 8.1
2017-May-09 09:30N 01°09' E 103°43'4 7.7
2017-May-09 09:00N 01°10' E 103°47'510.0
2017-May-09 08:28N 01°12' E 103°52'4 9.1
2017-May-09 08:00N 01°14' E 103°56'4 8.4
2017-May-09 07:30N 01°15' E 103°60'  

Dump ship's entire track history